Flight Track Log - Related Links

Times and Time Zones

All times are in EDT time to prevent confusion due to time zone crossing. See the ASQ5235 flight status page for this flight to view local times or setup timezone preferences in your user account.

Time Position Orientation Groundspeed Altitude Reporting Facility
EDT Latitude Longitude Course Direction KTS MPH feet Rate Location/Type
Mon 04:33:31 PM 37.2864 -79.9592 232° Southwest 159 183 2,700  Level Washington Center
Mon 04:38:29 PM 37.0692 -80.3033 227° Southwest 298 343 12,000 1,676 Climbing Atlanta Center
Mon 04:39:29 PM 37.0050 -80.3897 225° Southwest 324 373 12,700 700 Climbing Atlanta Center
Mon 04:40:29 PM 36.9306 -80.4839 227° Southwest 356 410 13,400 800 Climbing Atlanta Center
Mon 04:41:29 PM 36.8483 -80.5939 226° Southwest 385 443 14,300 900 Climbing Atlanta Center
Mon 04:42:29 PM 36.7739 -80.6906 226° Southwest 390 449 15,200 900 Climbing Atlanta Center
Mon 04:43:29 PM 36.6972 -80.7894 226° Southwest 395 455 16,100 900 Climbing Atlanta Center
Mon 04:44:29 PM 36.6206 -80.8883 227° Southwest 395 455 17,000 850 Climbing Atlanta Center
Mon 04:45:29 PM 36.5458 -80.9894 226° Southwest 400 460 17,800 850 Climbing Atlanta Center
Mon 04:46:29 PM 36.4692 -81.0881 225° Southwest 400 460 18,700 850 Climbing Atlanta Center
Mon 04:47:29 PM 36.3922 -81.1836 227° Southwest 400 460 19,500 750 Climbing Atlanta Center
Mon 04:48:29 PM 36.3153 -81.2869 225° Southwest 400 460 20,200 700 Climbing Atlanta Center
Mon 04:49:29 PM 36.2381 -81.3822 227° Southwest 405 466 20,900 700 Climbing Atlanta Center
Mon 04:50:29 PM 36.1631 -81.4822 226° Southwest 405 466 21,600 700 Climbing Atlanta Center
Mon 04:51:29 PM 36.0839 -81.5850 226° Southwest 405 466 22,300 700 Climbing Atlanta Center
Mon 04:52:29 PM 36.0044 -81.6850 225° Southwest 405 466 23,000 600 Climbing Atlanta Center
Mon 04:53:29 PM 35.9331 -81.7742 225° Southwest 405 466 23,500 550 Climbing Atlanta Center
Mon 04:54:29 PM 35.8453 -81.8842 226° Southwest 405 466 24,100 550 Climbing Atlanta Center
Mon 04:55:29 PM 35.7658 -81.9861 225° Southwest 405 466 24,600 800 Climbing Atlanta Center
Mon 04:56:29 PM 35.6839 -82.0881 226° Southwest 410 472 25,700 950 Climbing Atlanta Center
Mon 04:57:29 PM 35.6308 -82.1558 226° Southwest 410 472 26,500 1,000 Climbing Atlanta Center
Mon 04:58:29 PM 35.5386 -82.2725 233° Southwest 404 465 27,700 750 Climbing Atlanta Center
Mon 04:59:29 PM 35.4733 -82.3786 233° Southwest 394 453 28,000 150 Climbing Atlanta Center
Mon 05:00:29 PM 35.4058 -82.4869 232° Southwest 400 460 28,000  Level Atlanta Center
Mon 05:01:29 PM 35.3364 -82.5953 233° Southwest 392 451 28,000  Level Atlanta Center
Mon 05:02:29 PM 35.2728 -82.6981 233° Southwest 382 440 28,000 -300 Level Atlanta Center
Mon 05:03:29 PM 35.2092 -82.8008 233° Southwest 382 440 27,400 -800 Descending Atlanta Center
Mon 05:04:29 PM 35.1517 -82.8956 232° Southwest 389 448 26,400 -1,000 Descending Atlanta Center
Mon 05:05:29 PM 35.0878 -82.9956 234° Southwest 389 448 25,400 -1,000 Descending Atlanta Center
Mon 05:06:29 PM 35.0283 -83.0953 231° Southwest 389 448 24,400 -700 Descending Atlanta Center
Mon 05:07:29 PM 34.9642 -83.1922 232° Southwest 384 442 24,000 -200 Descending Atlanta Center
Mon 05:08:29 PM 34.9064 -83.2839 234° Southwest 367 422 24,000  Level Atlanta Center
Mon 05:09:29 PM 34.8444 -83.3858 232° Southwest 367 422 24,000  Level Atlanta Center
Mon 05:10:29 PM 34.7761 -83.4925 224° Southwest 386 444 24,000 -1,250 Level Atlanta Center
Mon 05:13:29 PM 34.5392 -83.7739 205° Southwest 371 427 19,000 -1,375 Descending Atlanta Center
Mon 05:18:29 PM 34.1344 -84.0011 176° South 300 345 13,000 -1,000 Descending Atlanta Center
Mon 05:19:29 PM 34.0781 -83.9961 165° South 291 335 13,000  Level Atlanta Center
Mon 05:20:29 PM 33.9778 -83.9636 188° South 297 342 13,000  Level Atlanta Center
Mon 05:21:29 PM 33.9006 -83.9761 219° Southwest 302 348 13,000  Level Atlanta Center
Mon 05:22:29 PM 33.8361 -84.0389 219° Southwest 292 336 13,000  Level Atlanta Center
Mon 05:23:29 PM 33.7714 -84.1014 212° Southwest 309 356 13,000 -476 Level Atlanta Center
Mon 05:24:35 PM 33.6833 -84.1667 226° Southwest 306 352 12,000 -455 Descending Atlanta TRACON
Mon 05:25:41 PM 33.6167 -84.2500 257° West 296 341 12,000 -429 Level Atlanta TRACON
Mon 05:26:41 PM 33.6000 -84.3333 258° West 296 341 11,100 -1,550 Descending Atlanta TRACON
Mon 05:29:41 PM 33.5500 -84.6167 287° West 271 312 5,800 -1,897 Descending Atlanta TRACON
Mon 05:30:35 PM 33.5667 -84.6833 16° North 274 315 3,700 -1,474 Descending Atlanta TRACON
Mon 05:31:35 PM 33.6167 -84.6667 90° East 235 270 3,000 -333 Descending Atlanta TRACON
Mon 05:32:41 PM 33.6167 -84.5833 90° East 207 238 3,000 -333 Level Atlanta TRACON
Mon 05:33:41 PM 33.6167 -84.5333 90° East 191 220 2,300 -750 Descending Atlanta TRACON
Mon 05:34:41 PM 33.6167 -84.4667 68° East 151 174 1,500 -800 Descending Atlanta TRACON
Mon 05:42:32 PM 33.6333 -84.4167 68° East  Level FlightAware Approximate

Login

Don't have an account? Register now (free) for customized features, flight alerts, and more!